Council Bluffs, IA

8:16 AM CST on December 11, 2019 (GMT -0600)
Council Bluffs Municipal

Weather History for KCBF - October, 2019

Change the Weather History Date:

Sunday, October 20, 2019

  Actual Average Record
Temperature  
Mean Temperature 52 °F -  
Max Temperature 62 °F 61 °F 82 °F (2003)
Min Temperature 42 °F 42 °F 30 °F (1999)
Degree Days  
Heating Degree Days 13    
Growing Degree Days 2 (Base 50)    
Moisture  
Dew Point 44 °F    
Average Humidity 75    
Maximum Humidity 100    
Minimum Humidity 42    
Precipitation  
Precipitation 0.03 in - - ()
Sea Level Pressure  
Sea Level Pressure 29.69 in    
Wind  
Wind Speed 11 mph ()    
Max Wind Speed 28 mph    
Max Gust Speed 39 mph    
Visibility 9.8 miles    
Events Rain    
Averages and records for this station are not official NWS values.
T = Trace of Precipitation, MM = Missing Value Source: Averaged Metar Reports

Daily Weather History Graph

Daily Weather History Graph

Search for Another Location

Airport or City:

Astronomy

Oct. 20, 2019 Rise Set
Actual Time 7:40 AM CDT 6:34 PM CDT
Civil Twilight 7:12 AM CDT 7:02 PM CDT
Nautical Twilight 6:39 AM CDT 7:34 PM CDT
Astronomical Twilight 6:08 AM CDT 8:06 PM CDT
Moon 11:42 PM CDT (10/20) 2:11 PM CDT (10/20)
Length of Visible Light 11h 50m
Length of Day
10h 54m
Waning Gibbous, 59% of the Moon is Illuminated
Oct 20
Waning Gibbous
Oct 21
Last Quarter
Oct 27
New
Nov 4
First Quarter
Nov 12
Full

Hourly Weather History & Observations

Time (CDT) Temp. Windchill Dew Point Humidity Pressure Visibility Wind Dir Wind Speed Gust Speed Precip Events Conditions
12:15 AM 50.0 °F - 37.4 °F 62% 29.78 in 10.0 mi South 8.1 mph - N/A   Clear
12:35 AM 51.8 °F - 37.4 °F 58% 29.78 in 10.0 mi South 6.9 mph - N/A   Clear
12:55 AM 50.0 °F - 39.2 °F 66% 29.78 in 10.0 mi South 8.1 mph - N/A   Clear
1:15 AM 48.2 °F - 39.2 °F 71% 29.77 in 10.0 mi SSE 5.8 mph - N/A   Clear
1:35 AM 51.8 °F - 37.4 °F 58% 29.76 in 10.0 mi South 6.9 mph - N/A   Clear
1:55 AM 50.0 °F - 37.4 °F 62% 29.77 in 10.0 mi South 8.1 mph - N/A   Clear
2:15 AM 50.0 °F - 39.2 °F 66% 29.77 in 10.0 mi South 9.2 mph - N/A   Clear
2:55 AM 46.4 °F 42.4 °F 39.2 °F 76% 29.78 in 10.0 mi SSE 8.1 mph - N/A   Clear
3:15 AM 46.4 °F 42.4 °F 41.0 °F 81% 29.76 in 10.0 mi SSE 8.1 mph - N/A   Clear
3:35 AM 48.2 °F - 41.0 °F 76% 29.77 in 10.0 mi South 8.1 mph - N/A   Clear
3:55 AM 46.4 °F 42.4 °F 42.8 °F 87% 29.77 in 10.0 mi South 8.1 mph - N/A   Clear
4:15 AM 44.6 °F 40.2 °F 42.8 °F 93% 29.77 in 10.0 mi SSE 8.1 mph - N/A   Clear
4:35 AM 44.6 °F 40.7 °F 44.6 °F 100% 29.77 in 10.0 mi SSE 6.9 mph - N/A   Clear
4:55 AM 46.4 °F 42.9 °F 44.6 °F 93% 29.77 in 10.0 mi SSE 6.9 mph - N/A   Clear
5:15 AM 46.4 °F 42.9 °F 44.6 °F 93% 29.77 in 10.0 mi SSE 6.9 mph - N/A   Clear
5:35 AM 44.6 °F 40.7 °F 44.6 °F 100% 29.77 in 10.0 mi SE 6.9 mph - N/A   Clear
5:55 AM 44.6 °F 40.7 °F 44.6 °F 100% 29.77 in 10.0 mi SE 6.9 mph - N/A   Clear
6:15 AM 44.6 °F 40.2 °F 44.6 °F 100% 29.77 in 10.0 mi SE 8.1 mph - N/A   Clear
6:35 AM 42.8 °F 38.6 °F 42.8 °F 100% 29.77 in 10.0 mi SE 6.9 mph - N/A   Clear
6:55 AM 44.6 °F 40.7 °F 44.6 °F 100% 29.77 in 10.0 mi SSE 6.9 mph - N/A   Clear
7:15 AM 44.6 °F 40.7 °F 44.6 °F 100% 29.77 in 10.0 mi SSE 6.9 mph - N/A   Clear
7:35 AM 44.6 °F 40.7 °F 44.6 °F 100% 29.76 in 10.0 mi SE 6.9 mph - N/A   Clear
7:55 AM 46.4 °F 42.9 °F 46.4 °F 100% 29.76 in 10.0 mi SE 6.9 mph - N/A   Clear
8:15 AM 46.4 °F 41.9 °F 46.4 °F 100% 29.76 in 10.0 mi SSE 9.2 mph - N/A   Clear
8:35 AM 46.4 °F 41.1 °F 46.4 °F 100% 29.76 in 10.0 mi SSE 11.5 mph - N/A   Clear
8:55 AM 48.2 °F - 48.2 °F 100% 29.77 in 10.0 mi SSE 9.2 mph 16.1 mph N/A   Clear
9:15 AM 50.0 °F - 50.0 °F 100% 29.78 in 10.0 mi SSE 10.4 mph - N/A   Clear
9:35 AM 50.0 °F - 50.0 °F 100% 29.79 in 10.0 mi SSE 10.4 mph - N/A   Clear
9:55 AM 50.0 °F - 50.0 °F 100% 29.79 in 10.0 mi SSE 9.2 mph - N/A   Clear
10:15 AM 51.8 °F - 51.8 °F 100% 29.78 in 10.0 mi SSE 11.5 mph - N/A   Clear
10:35 AM 51.8 °F - 51.8 °F 100% 29.78 in 10.0 mi SSE 10.4 mph - N/A   Clear
10:55 AM 53.6 °F - 53.6 °F 100% 29.77 in 10.0 mi SSE 12.7 mph - N/A   Clear
11:15 AM 55.4 °F - 53.6 °F 94% 29.76 in 10.0 mi SSE 18.4 mph 26.5 mph N/A   Clear
11:35 AM 55.4 °F - 53.6 °F 94% 29.75 in 10.0 mi SE 17.3 mph - N/A   Clear
11:55 AM 59.0 °F - 53.6 °F 82% 29.73 in 10.0 mi SSE 21.9 mph 28.8 mph N/A   Clear
12:15 PM 60.8 °F - 48.2 °F 63% 29.71 in 10.0 mi SE 23.0 mph 33.4 mph N/A   Clear
12:35 PM 60.8 °F - 46.4 °F 59% 29.69 in 10.0 mi SE 20.7 mph 35.7 mph N/A   Clear
12:55 PM 62.6 °F - 41.0 °F 45% 29.69 in 10.0 mi SE 27.6 mph 35.7 mph N/A   Clear
1:15 PM 62.6 °F - 41.0 °F 45% 29.71 in 10.0 mi SSE 20.7 mph 34.5 mph N/A   Clear
1:35 PM 62.6 °F - 42.8 °F 48% 29.71 in 10.0 mi SSE 20.7 mph 28.8 mph N/A   Clear
1:55 PM 62.6 °F - 41.0 °F 45% 29.71 in 10.0 mi SSE 15.0 mph 25.3 mph N/A   Clear
2:15 PM 60.8 °F - 41.0 °F 48% 29.70 in 10.0 mi SSE 17.3 mph - N/A   Clear
2:35 PM 60.8 °F - 41.0 °F 48% 29.69 in 10.0 mi SE 16.1 mph - N/A   Scattered Clouds
2:55 PM 60.8 °F - 39.2 °F 45% 29.69 in 10.0 mi SE 16.1 mph - N/A   Mostly Cloudy
3:15 PM 60.8 °F - 37.4 °F 42% 29.67 in 10.0 mi SE 17.3 mph 26.5 mph N/A   Scattered Clouds
3:35 PM 60.8 °F - 39.2 °F 45% 29.65 in 10.0 mi SE 19.6 mph 26.5 mph N/A   Partly Cloudy
3:55 PM 60.8 °F - 37.4 °F 42% 29.62 in 10.0 mi SE 21.9 mph 33.4 mph N/A   Scattered Clouds
4:15 PM 60.8 °F - 37.4 °F 42% 29.61 in 10.0 mi SE 24.2 mph 32.2 mph N/A   Scattered Clouds
4:35 PM 60.8 °F - 37.4 °F 42% 29.62 in 10.0 mi SE 16.1 mph 35.7 mph N/A   Mostly Cloudy
4:55 PM 60.8 °F - 37.4 °F 42% 29.61 in 10.0 mi ESE 26.5 mph 33.4 mph N/A   Scattered Clouds
5:15 PM 59.0 °F - 39.2 °F 48% 29.60 in 10.0 mi SE 25.3 mph 39.1 mph N/A   Clear
5:35 PM 59.0 °F - 39.2 °F 48% 29.58 in 10.0 mi ESE 25.3 mph 36.8 mph N/A   Mostly Cloudy
5:55 PM 59.0 °F - 39.2 °F 48% 29.59 in 10.0 mi SE 26.5 mph 33.4 mph N/A   Mostly Cloudy
6:15 PM 57.2 °F - 39.2 °F 51% 29.60 in 10.0 mi SE 20.7 mph 28.8 mph N/A   Scattered Clouds
6:35 PM 57.2 °F - 39.2 °F 51% 29.61 in 10.0 mi SE 23.0 mph 28.8 mph N/A   Clear
6:55 PM 57.2 °F - 41.0 °F 55% 29.60 in 10.0 mi SE 19.6 mph 28.8 mph N/A   Mostly Cloudy
7:15 PM 57.2 °F - 41.0 °F 55% 29.60 in 10.0 mi SE 16.1 mph 25.3 mph N/A   Overcast
7:35 PM 57.2 °F - 41.0 °F 55% 29.60 in 10.0 mi SE 17.3 mph - N/A   Overcast
7:55 PM 57.2 °F - 42.8 °F 59% 29.60 in 10.0 mi SE 16.1 mph 24.2 mph N/A   Overcast
8:15 PM 57.2 °F - 42.8 °F 59% 29.59 in 10.0 mi SE 19.6 mph - N/A   Overcast
8:35 PM 57.2 °F - 42.8 °F 59% 29.59 in 10.0 mi SE 20.7 mph 28.8 mph N/A   Overcast
8:55 PM 57.2 °F - 44.6 °F 63% 29.58 in 10.0 mi SE 23.0 mph - N/A   Overcast
9:15 PM 53.6 °F - 50.0 °F 88% 29.59 in 6.0 mi SSE 20.7 mph - N/A   Haze
9:35 PM 53.6 °F - 51.8 °F 94% 29.59 in 6.0 mi SE 15.0 mph 20.7 mph N/A   Overcast
9:55 PM 53.6 °F - 53.6 °F 100% 29.60 in 4.0 mi Variable 5.8 mph 18.4 mph 0.03 in Rain Light Rain
10:15 PM 53.6 °F - 53.6 °F 100% 29.59 in 10.0 mi SSE 5.8 mph - N/A   Mostly Cloudy
10:35 PM 51.8 °F - 51.8 °F 100% 29.57 in 10.0 mi SE 11.5 mph - N/A   Overcast
10:55 PM 51.8 °F - 51.8 °F 100% 29.55 in 10.0 mi SE 9.2 mph - N/A   Mostly Cloudy
11:15 PM 51.8 °F - 51.8 °F 100% 29.54 in 10.0 mi SSE 6.9 mph - N/A   Partly Cloudy
11:35 PM 51.8 °F - 51.8 °F 100% 29.52 in 10.0 mi SE 6.9 mph - N/A   Clear
11:55 PM 50.0 °F - 50.0 °F 100% 29.51 in 10.0 mi SE 6.9 mph - N/A   Clear